sensor_id;sensor_type;location;lat;lon;timestamp;pressure;altitude;pressure_sealevel;temperature;humidity
43394;BME280;62479;62.642;17.954;2022-11-14T00:00:40;102808.57;;;2.81;74.33
43394;BME280;62479;62.642;17.954;2022-11-14T00:03:11;102801.17;;;2.85;74.32
43394;BME280;62479;62.642;17.954;2022-11-14T00:05:42;102798.21;;;2.89;74.33
43394;BME280;62479;62.642;17.954;2022-11-14T00:08:15;102794.02;;;2.89;74.35
43394;BME280;62479;62.642;17.954;2022-11-14T00:10:46;102792.47;;;2.85;74.50
43394;BME280;62479;62.642;17.954;2022-11-14T00:13:17;102789.97;;;2.83;74.87
43394;BME280;62479;62.642;17.954;2022-11-14T00:15:49;102786.58;;;2.96;74.88
43394;BME280;62479;62.642;17.954;2022-11-14T00:18:18;102783.00;;;3.00;74.66
43394;BME280;62479;62.642;17.954;2022-11-14T00:20:48;102782.27;;;3.00;74.22
43394;BME280;62479;62.642;17.954;2022-11-14T00:23:18;102785.16;;;2.96;74.11
43394;BME280;62479;62.642;17.954;2022-11-14T00:25:47;102783.40;;;2.86;74.55
43394;BME280;62479;62.642;17.954;2022-11-14T00:28:17;102786.29;;;2.84;74.49
43394;BME280;62479;62.642;17.954;2022-11-14T00:30:46;102782.23;;;2.86;74.25
43394;BME280;62479;62.642;17.954;2022-11-14T00:33:18;102780.75;;;2.87;74.33
43394;BME280;62479;62.642;17.954;2022-11-14T00:35:51;102775.39;;;2.89;74.11
43394;BME280;62479;62.642;17.954;2022-11-14T00:38:21;102774.92;;;2.79;74.20
43394;BME280;62479;62.642;17.954;2022-11-14T00:40:49;102771.84;;;2.87;74.28
43394;BME280;62479;62.642;17.954;2022-11-14T00:43:18;102769.36;;;2.80;74.52
43394;BME280;62479;62.642;17.954;2022-11-14T00:45:46;102764.76;;;2.92;74.49
43394;BME280;62479;62.642;17.954;2022-11-14T00:48:16;102762.71;;;2.99;74.29
43394;BME280;62479;62.642;17.954;2022-11-14T00:50:44;102762.55;;;3.06;74.12
43394;BME280;62479;62.642;17.954;2022-11-14T00:53:14;102764.23;;;3.29;73.78
43394;BME280;62479;62.642;17.954;2022-11-14T00:55:48;102761.34;;;3.29;73.26
43394;BME280;62479;62.642;17.954;2022-11-14T00:58:17;102762.82;;;3.32;73.02
43394;BME280;62479;62.642;17.954;2022-11-14T01:00:45;102767.38;;;3.16;73.09
43394;BME280;62479;62.642;17.954;2022-11-14T01:03:14;102769.39;;;3.36;73.19
43394;BME280;62479;62.642;17.954;2022-11-14T01:05:45;102771.63;;;3.21;73.18
43394;BME280;62479;62.642;17.954;2022-11-14T01:08:16;102766.04;;;3.22;73.42
43394;BME280;62479;62.642;17.954;2022-11-14T01:10:47;102757.14;;;3.16;73.46
43394;BME280;62479;62.642;17.954;2022-11-14T01:13:16;102756.91;;;3.29;73.28
43394;BME280;62479;62.642;17.954;2022-11-14T01:15:48;102755.23;;;3.29;73.28
43394;BME280;62479;62.642;17.954;2022-11-14T01:18:19;102748.97;;;3.27;73.18
43394;BME280;62479;62.642;17.954;2022-11-14T01:20:47;102748.04;;;3.38;73.12
43394;BME280;62479;62.642;17.954;2022-11-14T01:23:16;102749.66;;;3.27;73.20
43394;BME280;62479;62.642;17.954;2022-11-14T01:25:45;102747.45;;;3.36;73.26
43394;BME280;62479;62.642;17.954;2022-11-14T01:28:17;102744.15;;;3.30;73.08
43394;BME280;62479;62.642;17.954;2022-11-14T01:30:46;102743.28;;;3.26;73.19
43394;BME280;62479;62.642;17.954;2022-11-14T01:33:17;102741.01;;;3.30;73.17
43394;BME280;62479;62.642;17.954;2022-11-14T01:35:45;102737.75;;;3.23;73.02
43394;BME280;62479;62.642;17.954;2022-11-14T01:38:15;102735.35;;;3.41;72.97
43394;BME280;62479;62.642;17.954;2022-11-14T01:40:45;102735.83;;;3.34;72.95
43394;BME280;62479;62.642;17.954;2022-11-14T01:43:31;102731.60;;;3.42;72.87
43394;BME280;62479;62.642;17.954;2022-11-14T01:46:02;102732.53;;;3.27;72.91
43394;BME280;62479;62.642;17.954;2022-11-14T01:48:36;102735.30;;;3.33;72.92
43394;BME280;62479;62.642;17.954;2022-11-14T01:51:15;102734.60;;;3.47;72.79
43394;BME280;62479;62.642;17.954;2022-11-14T01:53:45;102734.55;;;3.34;72.98
43394;BME280;62479;62.642;17.954;2022-11-14T01:56:18;102733.96;;;3.39;72.99
43394;BME280;62479;62.642;17.954;2022-11-14T01:58:52;102728.13;;;3.36;72.91
43394;BME280;62479;62.642;17.954;2022-11-14T02:01:21;102723.18;;;3.42;72.74
43394;BME280;62479;62.642;17.954;2022-11-14T02:03:52;102718.77;;;3.47;72.59
43394;BME280;62479;62.642;17.954;2022-11-14T02:06:24;102716.48;;;3.42;72.59
43394;BME280;62479;62.642;17.954;2022-11-14T02:08:57;102713.49;;;3.45;72.57
43394;BME280;62479;62.642;17.954;2022-11-14T02:11:30;102713.91;;;3.31;72.83
43394;BME280;62479;62.642;17.954;2022-11-14T02:14:00;102709.98;;;3.34;72.90
43394;BME280;62479;62.642;17.954;2022-11-14T02:16:30;102704.33;;;3.27;72.91
43394;BME280;62479;62.642;17.954;2022-11-14T02:18:58;102699.38;;;3.24;72.83
43394;BME280;62479;62.642;17.954;2022-11-14T02:21:27;102700.00;;;3.24;72.96
43394;BME280;62479;62.642;17.954;2022-11-14T02:23:57;102694.73;;;3.22;72.83
43394;BME280;62479;62.642;17.954;2022-11-14T02:26:26;102692.95;;;3.16;72.87
43394;BME280;62479;62.642;17.954;2022-11-14T02:28:56;102690.58;;;3.17;72.84
43394;BME280;62479;62.642;17.954;2022-11-14T02:31:25;102684.49;;;3.33;72.80
43394;BME280;62479;62.642;17.954;2022-11-14T02:33:53;102679.73;;;3.47;73.03
43394;BME280;62479;62.642;17.954;2022-11-14T02:36:22;102681.83;;;3.30;72.97
43394;BME280;62479;62.642;17.954;2022-11-14T02:38:51;102679.16;;;3.41;72.97
43394;BME280;62479;62.642;17.954;2022-11-14T02:41:20;102679.54;;;3.20;73.06
43394;BME280;62479;62.642;17.954;2022-11-14T02:43:50;102678.93;;;3.32;73.13
43394;BME280;62479;62.642;17.954;2022-11-14T02:46:19;102678.46;;;3.25;73.05
43394;BME280;62479;62.642;17.954;2022-11-14T02:48:48;102676.00;;;3.42;72.84
43394;BME280;62479;62.642;17.954;2022-11-14T02:51:17;102675.72;;;3.48;72.62
43394;BME280;62479;62.642;17.954;2022-11-14T02:53:46;102677.21;;;3.34;72.81
43394;BME280;62479;62.642;17.954;2022-11-14T02:56:16;102675.15;;;3.36;72.92
43394;BME280;62479;62.642;17.954;2022-11-14T02:58:46;102667.09;;;3.31;73.12
43394;BME280;62479;62.642;17.954;2022-11-14T03:01:15;102659.52;;;3.31;73.37
43394;BME280;62479;62.642;17.954;2022-11-14T03:03:44;102656.32;;;3.39;73.34
43394;BME280;62479;62.642;17.954;2022-11-14T03:06:12;102650.27;;;3.38;73.35
43394;BME280;62479;62.642;17.954;2022-11-14T03:08:42;102644.58;;;3.34;73.34
43394;BME280;62479;62.642;17.954;2022-11-14T03:11:12;102641.42;;;3.39;73.17
43394;BME280;62479;62.642;17.954;2022-11-14T03:13:41;102637.07;;;3.43;72.96
43394;BME280;62479;62.642;17.954;2022-11-14T03:16:13;102636.26;;;3.36;72.75
43394;BME280;62479;62.642;17.954;2022-11-14T03:18:43;102632.13;;;3.40;72.76
43394;BME280;62479;62.642;17.954;2022-11-14T03:21:17;102635.13;;;3.44;72.79
43394;BME280;62479;62.642;17.954;2022-11-14T03:23:45;102635.29;;;3.26;72.91
43394;BME280;62479;62.642;17.954;2022-11-14T03:26:15;102636.42;;;3.30;73.21
43394;BME280;62479;62.642;17.954;2022-11-14T03:28:45;102630.34;;;3.19;73.27
43394;BME280;62479;62.642;17.954;2022-11-14T03:31:14;102621.58;;;3.16;73.44
43394;BME280;62479;62.642;17.954;2022-11-14T03:33:43;102613.92;;;3.08;73.63
43394;BME280;62479;62.642;17.954;2022-11-14T03:36:11;102613.13;;;3.04;73.53
43394;BME280;62479;62.642;17.954;2022-11-14T03:38:42;102611.84;;;3.07;73.50
43394;BME280;62479;62.642;17.954;2022-11-14T03:41:11;102607.90;;;3.13;73.70
43394;BME280;62479;62.642;17.954;2022-11-14T03:43:40;102611.40;;;3.11;73.76
43394;BME280;62479;62.642;17.954;2022-11-14T03:46:09;102610.50;;;3.16;73.99
43394;BME280;62479;62.642;17.954;2022-11-14T03:48:38;102611.57;;;3.06;74.20
43394;BME280;62479;62.642;17.954;2022-11-14T03:51:08;102612.11;;;3.22;74.05
43394;BME280;62479;62.642;17.954;2022-11-14T03:53:37;102608.40;;;3.31;73.80
43394;BME280;62479;62.642;17.954;2022-11-14T03:56:07;102608.21;;;3.38;73.60
43394;BME280;62479;62.642;17.954;2022-11-14T03:58:36;102603.74;;;3.38;73.51
43394;BME280;62479;62.642;17.954;2022-11-14T04:01:06;102599.41;;;3.37;73.44
43394;BME280;62479;62.642;17.954;2022-11-14T04:03:37;102594.92;;;3.48;73.25
43394;BME280;62479;62.642;17.954;2022-11-14T04:06:06;102598.54;;;3.43;73.07
43394;BME280;62479;62.642;17.954;2022-11-14T04:08:34;102597.37;;;3.48;72.86
43394;BME280;62479;62.642;17.954;2022-11-14T04:11:03;102594.82;;;3.34;73.04
43394;BME280;62479;62.642;17.954;2022-11-14T04:13:32;102589.73;;;3.36;72.78
43394;BME280;62479;62.642;17.954;2022-11-14T04:16:01;102582.76;;;3.24;73.12
43394;BME280;62479;62.642;17.954;2022-11-14T04:18:30;102578.32;;;3.15;73.32
43394;BME280;62479;62.642;17.954;2022-11-14T04:20:59;102575.98;;;3.13;73.48
43394;BME280;62479;62.642;17.954;2022-11-14T04:23:28;102574.69;;;3.05;73.54
43394;BME280;62479;62.642;17.954;2022-11-14T04:25:57;102576.16;;;3.19;73.57
43394;BME280;62479;62.642;17.954;2022-11-14T04:28:26;102577.85;;;3.14;73.45
43394;BME280;62479;62.642;17.954;2022-11-14T04:30:56;102581.62;;;3.20;73.44
43394;BME280;62479;62.642;17.954;2022-11-14T04:33:25;102585.00;;;3.16;73.36
43394;BME280;62479;62.642;17.954;2022-11-14T04:35:54;102582.69;;;3.18;73.57
43394;BME280;62479;62.642;17.954;2022-11-14T04:38:23;102588.80;;;3.29;73.39
43394;BME280;62479;62.642;17.954;2022-11-14T04:40:51;102594.46;;;3.34;73.56
43394;BME280;62479;62.642;17.954;2022-11-14T04:43:20;102599.02;;;3.36;73.69
43394;BME280;62479;62.642;17.954;2022-11-14T04:45:50;102597.01;;;3.37;73.97
43394;BME280;62479;62.642;17.954;2022-11-14T04:48:18;102594.39;;;3.25;74.07
43394;BME280;62479;62.642;17.954;2022-11-14T04:50:47;102592.74;;;3.16;74.38
43394;BME280;62479;62.642;17.954;2022-11-14T04:53:16;102595.64;;;3.22;74.53
43394;BME280;62479;62.642;17.954;2022-11-14T04:55:45;102592.82;;;3.18;74.52
43394;BME280;62479;62.642;17.954;2022-11-14T04:58:14;102589.56;;;3.34;74.25
43394;BME280;62479;62.642;17.954;2022-11-14T05:03:22;102590.36;;;3.14;74.62
43394;BME280;62479;62.642;17.954;2022-11-14T05:05:51;102582.95;;;3.27;74.84
43394;BME280;62479;62.642;17.954;2022-11-14T05:08:20;102576.40;;;3.25;75.20
43394;BME280;62479;62.642;17.954;2022-11-14T05:10:48;102576.85;;;3.33;75.09
43394;BME280;62479;62.642;17.954;2022-11-14T05:13:18;102581.94;;;3.28;74.73
43394;BME280;62479;62.642;17.954;2022-11-14T05:15:47;102584.19;;;3.27;74.57
43394;BME280;62479;62.642;17.954;2022-11-14T05:18:16;102579.62;;;3.43;74.38
43394;BME280;62479;62.642;17.954;2022-11-14T05:20:45;102568.91;;;3.32;74.40
43394;BME280;62479;62.642;17.954;2022-11-14T05:23:19;102568.02;;;3.37;74.42
43394;BME280;62479;62.642;17.954;2022-11-14T05:25:58;102569.02;;;3.33;74.36
43394;BME280;62479;62.642;17.954;2022-11-14T05:28:28;102568.22;;;3.35;74.34
43394;BME280;62479;62.642;17.954;2022-11-14T05:31:00;102563.49;;;3.36;74.60
43394;BME280;62479;62.642;17.954;2022-11-14T05:33:29;102562.59;;;3.44;74.45
43394;BME280;62479;62.642;17.954;2022-11-14T05:36:02;102561.78;;;3.47;74.46
43394;BME280;62479;62.642;17.954;2022-11-14T05:38:31;102559.24;;;3.53;74.38
43394;BME280;62479;62.642;17.954;2022-11-14T05:41:04;102562.94;;;3.57;73.96
43394;BME280;62479;62.642;17.954;2022-11-14T05:43:33;102570.06;;;3.54;73.90
43394;BME280;62479;62.642;17.954;2022-11-14T05:46:04;102563.93;;;3.59;73.75
43394;BME280;62479;62.642;17.954;2022-11-14T05:48:34;102554.66;;;3.37;73.77
43394;BME280;62479;62.642;17.954;2022-11-14T05:51:05;102550.54;;;3.41;73.76
43394;BME280;62479;62.642;17.954;2022-11-14T05:53:35;102550.34;;;3.40;73.86
43394;BME280;62479;62.642;17.954;2022-11-14T05:56:06;102547.19;;;3.38;73.86
43394;BME280;62479;62.642;17.954;2022-11-14T05:58:36;102545.32;;;3.30;73.64
43394;BME280;62479;62.642;17.954;2022-11-14T06:01:06;102551.12;;;3.29;73.83
43394;BME280;62479;62.642;17.954;2022-11-14T06:03:38;102559.91;;;3.34;73.90
43394;BME280;62479;62.642;17.954;2022-11-14T06:06:09;102562.29;;;3.44;73.77
43394;BME280;62479;62.642;17.954;2022-11-14T11:03:39;102427.21;;;3.03;71.60
43394;BME280;62479;62.642;17.954;2022-11-14T11:06:24;102422.84;;;3.34;71.55
43394;BME280;62479;62.642;17.954;2022-11-14T11:08:54;102423.41;;;3.50;71.25
43394;BME280;62479;62.642;17.954;2022-11-14T11:11:24;102423.93;;;3.61;71.03
43394;BME280;62479;62.642;17.954;2022-11-14T11:13:54;102418.69;;;3.79;70.66
43394;BME280;62479;62.642;17.954;2022-11-14T11:16:26;102419.00;;;3.65;70.27
43394;BME280;62479;62.642;17.954;2022-11-14T14:35:36;102252.04;;;3.25;70.57
43394;BME280;62479;62.642;17.954;2022-11-14T14:46:43;102222.18;;;3.21;70.79
43394;BME280;62479;62.642;17.954;2022-11-14T14:49:10;102216.28;;;3.18;70.92
43394;BME280;62479;62.642;17.954;2022-11-14T14:51:39;102209.33;;;3.39;70.99
43394;BME280;62479;62.642;17.954;2022-11-14T14:54:19;102200.70;;;3.39;71.21
43394;BME280;62479;62.642;17.954;2022-11-14T14:56:53;102198.91;;;3.46;71.16
43394;BME280;62479;62.642;17.954;2022-11-14T14:59:30;102203.09;;;3.49;70.92
43394;BME280;62479;62.642;17.954;2022-11-14T15:01:59;102198.07;;;3.55;70.63
43394;BME280;62479;62.642;17.954;2022-11-14T15:04:28;102187.80;;;3.65;70.66
43394;BME280;62479;62.642;17.954;2022-11-14T15:06:57;102181.11;;;3.61;70.68
43394;BME280;62479;62.642;17.954;2022-11-14T15:09:28;102179.09;;;3.57;70.67
43394;BME280;62479;62.642;17.954;2022-11-14T15:11:58;102183.87;;;3.48;70.74
43394;BME280;62479;62.642;17.954;2022-11-14T15:14:30;102176.39;;;3.55;70.64
43394;BME280;62479;62.642;17.954;2022-11-14T15:16:59;102175.64;;;3.53;70.70
43394;BME280;62479;62.642;17.954;2022-11-14T15:19:38;102181.37;;;3.62;70.79
43394;BME280;62479;62.642;17.954;2022-11-14T15:22:21;102192.94;;;3.71;70.72
43394;BME280;62479;62.642;17.954;2022-11-14T15:25:25;102198.11;;;3.73;70.73
43394;BME280;62479;62.642;17.954;2022-11-14T15:27:54;102186.89;;;3.83;70.64
43394;BME280;62479;62.642;17.954;2022-11-14T15:30:26;102196.46;;;3.91;70.51
43394;BME280;62479;62.642;17.954;2022-11-14T15:32:56;102188.36;;;3.83;70.25
43394;BME280;62479;62.642;17.954;2022-11-14T15:33:00;102187.72;;;3.83;70.25
43394;BME280;62479;62.642;17.954;2022-11-14T15:35:31;102181.83;;;3.87;70.22
43394;BME280;62479;62.642;17.954;2022-11-14T15:38:04;102170.87;;;3.66;70.33
43394;BME280;62479;62.642;17.954;2022-11-14T15:40:36;102173.66;;;3.67;70.45
43394;BME280;62479;62.642;17.954;2022-11-14T15:43:46;102164.40;;;3.71;70.47
43394;BME280;62479;62.642;17.954;2022-11-14T15:50:55;102150.72;;;3.59;71.23
43394;BME280;62479;62.642;17.954;2022-11-14T15:53:26;102142.51;;;3.57;71.17
43394;BME280;62479;62.642;17.954;2022-11-14T15:55:56;102136.35;;;3.44;71.15
43394;BME280;62479;62.642;17.954;2022-11-14T15:58:25;102130.66;;;3.21;71.35
43394;BME280;62479;62.642;17.954;2022-11-14T16:00:53;102120.67;;;3.26;71.40
43394;BME280;62479;62.642;17.954;2022-11-14T16:03:23;102113.93;;;2.94;71.62
43394;BME280;62479;62.642;17.954;2022-11-14T16:05:53;102110.65;;;2.81;71.99
43394;BME280;62479;62.642;17.954;2022-11-14T16:08:21;102099.38;;;2.66;72.49
43394;BME280;62479;62.642;17.954;2022-11-14T16:10:49;102102.73;;;2.57;72.62
43394;BME280;62479;62.642;17.954;2022-11-14T16:13:17;102108.52;;;2.42;72.89
43394;BME280;62479;62.642;17.954;2022-11-14T16:15:45;102116.36;;;2.34;73.00
43394;BME280;62479;62.642;17.954;2022-11-14T16:18:14;102119.78;;;2.36;73.02
43394;BME280;62479;62.642;17.954;2022-11-14T16:20:43;102134.17;;;2.28;73.08
43394;BME280;62479;62.642;17.954;2022-11-14T16:23:12;102156.65;;;2.22;73.29
43394;BME280;62479;62.642;17.954;2022-11-14T16:25:41;102159.59;;;2.14;74.64
43394;BME280;62479;62.642;17.954;2022-11-14T16:28:10;102156.56;;;2.15;75.45
43394;BME280;62479;62.642;17.954;2022-11-14T16:30:40;102155.27;;;2.09;75.90
43394;BME280;62479;62.642;17.954;2022-11-14T16:33:08;102163.73;;;2.14;75.92
43394;BME280;62479;62.642;17.954;2022-11-14T16:35:37;102174.14;;;2.01;75.93
43394;BME280;62479;62.642;17.954;2022-11-14T16:38:08;102176.92;;;2.02;75.96
43394;BME280;62479;62.642;17.954;2022-11-14T16:40:43;102171.63;;;1.88;76.22
43394;BME280;62479;62.642;17.954;2022-11-14T16:43:13;102174.61;;;1.85;76.71
43394;BME280;62479;62.642;17.954;2022-11-14T16:45:41;102182.75;;;1.78;76.76
43394;BME280;62479;62.642;17.954;2022-11-14T16:48:09;102180.81;;;1.69;76.72
43394;BME280;62479;62.642;17.954;2022-11-14T16:50:38;102171.27;;;1.55;76.76
43394;BME280;62479;62.642;17.954;2022-11-14T16:53:07;102165.85;;;1.49;76.97
43394;BME280;62479;62.642;17.954;2022-11-14T16:55:35;102148.66;;;1.49;77.12
43394;BME280;62479;62.642;17.954;2022-11-14T16:58:05;102134.39;;;1.36;76.91
43394;BME280;62479;62.642;17.954;2022-11-14T17:03:30;102129.66;;;1.24;76.49
43394;BME280;62479;62.642;17.954;2022-11-14T17:06:00;102113.50;;;1.28;76.38
43394;BME280;62479;62.642;17.954;2022-11-14T17:08:29;102108.56;;;1.22;76.23
43394;BME280;62479;62.642;17.954;2022-11-14T17:10:58;102102.83;;;1.20;75.97
43394;BME280;62479;62.642;17.954;2022-11-14T17:13:27;102094.36;;;1.27;76.26
43394;BME280;62479;62.642;17.954;2022-11-14T17:16:00;102126.29;;;1.41;76.07
43394;BME280;62479;62.642;17.954;2022-11-14T17:18:29;102129.82;;;1.56;76.02
43394;BME280;62479;62.642;17.954;2022-11-14T17:20:58;102135.41;;;1.48;76.02
43394;BME280;62479;62.642;17.954;2022-11-14T17:23:33;102137.53;;;1.47;75.74
43394;BME280;62479;62.642;17.954;2022-11-14T17:26:02;102135.33;;;1.45;75.56
43394;BME280;62479;62.642;17.954;2022-11-14T17:28:33;102124.29;;;1.53;75.62
43394;BME280;62479;62.642;17.954;2022-11-14T17:31:06;102117.22;;;1.51;75.56
43394;BME280;62479;62.642;17.954;2022-11-14T17:33:36;102103.94;;;1.66;75.64
43394;BME280;62479;62.642;17.954;2022-11-14T17:36:06;102107.36;;;1.76;75.46
43394;BME280;62479;62.642;17.954;2022-11-14T17:38:37;102121.84;;;1.97;75.43
43394;BME280;62479;62.642;17.954;2022-11-14T17:41:07;102122.03;;;2.01;75.54
43394;BME280;62479;62.642;17.954;2022-11-14T17:43:36;102114.79;;;2.17;75.31
43394;BME280;62479;62.642;17.954;2022-11-14T17:46:05;102113.54;;;2.31;74.93
43394;BME280;62479;62.642;17.954;2022-11-14T17:48:33;102116.10;;;2.52;74.50
43394;BME280;62479;62.642;17.954;2022-11-14T17:51:03;102120.19;;;2.47;74.27
43394;BME280;62479;62.642;17.954;2022-11-14T17:53:34;102113.58;;;2.64;73.76
43394;BME280;62479;62.642;17.954;2022-11-14T17:56:04;102116.30;;;2.66;73.64
43394;BME280;62479;62.642;17.954;2022-11-14T17:58:33;102120.48;;;2.73;73.59
43394;BME280;62479;62.642;17.954;2022-11-14T18:01:08;102120.39;;;2.63;73.42
43394;BME280;62479;62.642;17.954;2022-11-14T18:03:38;102121.38;;;2.69;73.78
43394;BME280;62479;62.642;17.954;2022-11-14T18:06:08;102120.54;;;2.68;73.81
43394;BME280;62479;62.642;17.954;2022-11-14T18:08:38;102125.28;;;2.64;74.15
43394;BME280;62479;62.642;17.954;2022-11-14T18:11:09;102142.00;;;2.67;74.63
43394;BME280;62479;62.642;17.954;2022-11-14T18:13:39;102154.04;;;2.66;74.70
43394;BME280;62479;62.642;17.954;2022-11-14T18:16:10;102156.97;;;2.58;74.74
43394;BME280;62479;62.642;17.954;2022-11-14T18:18:41;102154.56;;;2.52;74.77
43394;BME280;62479;62.642;17.954;2022-11-14T18:21:11;102155.55;;;2.45;75.25
43394;BME280;62479;62.642;17.954;2022-11-14T18:23:40;102150.39;;;2.38;75.65
43394;BME280;62479;62.642;17.954;2022-11-14T18:26:10;102159.14;;;2.22;76.02
43394;BME280;62479;62.642;17.954;2022-11-14T18:28:40;102150.00;;;2.21;76.44
43394;BME280;62479;62.642;17.954;2022-11-14T18:31:09;102135.69;;;2.18;76.34
43394;BME280;62479;62.642;17.954;2022-11-14T18:33:38;102152.53;;;2.18;76.76
43394;BME280;62479;62.642;17.954;2022-11-14T18:36:10;102142.11;;;2.14;76.99
43394;BME280;62479;62.642;17.954;2022-11-14T18:38:39;102127.64;;;2.17;76.78
43394;BME280;62479;62.642;17.954;2022-11-14T18:41:12;102138.52;;;2.24;76.87
43394;BME280;62479;62.642;17.954;2022-11-14T18:43:43;102131.25;;;2.28;76.98
43394;BME280;62479;62.642;17.954;2022-11-14T18:46:13;102127.56;;;2.12;76.87
43394;BME280;62479;62.642;17.954;2022-11-14T18:48:43;102136.60;;;2.19;76.85
43394;BME280;62479;62.642;17.954;2022-11-14T18:51:14;102135.79;;;2.25;76.89
43394;BME280;62479;62.642;17.954;2022-11-14T18:53:43;102133.05;;;2.24;76.52
43394;BME280;62479;62.642;17.954;2022-11-14T18:56:15;102136.26;;;2.29;76.24
43394;BME280;62479;62.642;17.954;2022-11-14T18:58:44;102120.54;;;2.32;76.18
43394;BME280;62479;62.642;17.954;2022-11-14T19:01:15;102129.20;;;2.20;76.28
43394;BME280;62479;62.642;17.954;2022-11-14T19:03:45;102128.07;;;2.20;76.60
43394;BME280;62479;62.642;17.954;2022-11-14T19:06:14;102124.89;;;2.17;76.63
43394;BME280;62479;62.642;17.954;2022-11-14T19:08:42;102126.85;;;2.28;76.62
43394;BME280;62479;62.642;17.954;2022-11-14T19:11:12;102128.22;;;2.20;76.64
43394;BME280;62479;62.642;17.954;2022-11-14T19:13:41;102132.81;;;2.33;76.84
43394;BME280;62479;62.642;17.954;2022-11-14T19:16:11;102134.19;;;2.21;76.84
43394;BME280;62479;62.642;17.954;2022-11-14T19:18:40;102128.93;;;2.16;77.87
43394;BME280;62479;62.642;17.954;2022-11-14T19:21:10;102132.43;;;2.08;78.46
43394;BME280;62479;62.642;17.954;2022-11-14T19:23:39;102131.26;;;1.87;78.68
43394;BME280;62479;62.642;17.954;2022-11-14T19:26:08;102117.79;;;1.93;78.79
43394;BME280;62479;62.642;17.954;2022-11-14T19:28:37;102112.54;;;1.83;78.91
43394;BME280;62479;62.642;17.954;2022-11-14T19:31:07;102118.20;;;1.98;78.77
43394;BME280;62479;62.642;17.954;2022-11-14T19:33:38;102130.77;;;1.93;79.02
43394;BME280;62479;62.642;17.954;2022-11-14T19:36:10;102138.85;;;1.91;79.20
43394;BME280;62479;62.642;17.954;2022-11-14T19:38:40;102113.44;;;1.99;78.99
43394;BME280;62479;62.642;17.954;2022-11-14T19:41:12;102125.48;;;2.21;78.75
43394;BME280;62479;62.642;17.954;2022-11-14T19:43:41;102129.18;;;2.22;78.72
43394;BME280;62479;62.642;17.954;2022-11-14T19:46:12;102125.53;;;2.30;78.21
43394;BME280;62479;62.642;17.954;2022-11-14T19:48:41;102103.27;;;2.51;77.91
43394;BME280;62479;62.642;17.954;2022-11-14T19:51:12;102102.02;;;2.44;77.48
43394;BME280;62479;62.642;17.954;2022-11-14T19:53:42;102098.16;;;2.32;77.46
43394;BME280;62479;62.642;17.954;2022-11-14T19:56:12;102103.69;;;2.48;77.17
43394;BME280;62479;62.642;17.954;2022-11-14T19:58:42;102112.76;;;2.49;77.17
43394;BME280;62479;62.642;17.954;2022-11-14T20:01:12;102122.31;;;2.59;77.16
43394;BME280;62479;62.642;17.954;2022-11-14T20:03:42;102121.18;;;2.64;77.05
43394;BME280;62479;62.642;17.954;2022-11-14T20:06:14;102111.13;;;2.71;77.14
43394;BME280;62479;62.642;17.954;2022-11-14T20:08:43;102112.61;;;2.75;77.01
43394;BME280;62479;62.642;17.954;2022-11-14T20:11:12;102124.62;;;2.78;76.71
43394;BME280;62479;62.642;17.954;2022-11-14T20:13:42;102124.76;;;2.74;76.64
43394;BME280;62479;62.642;17.954;2022-11-14T20:16:11;102124.78;;;2.76;76.56
43394;BME280;62479;62.642;17.954;2022-11-14T20:18:42;102133.31;;;2.59;76.42
43394;BME280;62479;62.642;17.954;2022-11-14T20:21:14;102139.81;;;2.30;76.48
43394;BME280;62479;62.642;17.954;2022-11-14T20:23:43;102139.04;;;2.19;77.31
43394;BME280;62479;62.642;17.954;2022-11-14T20:26:13;102141.61;;;2.10;78.02
43394;BME280;62479;62.642;17.954;2022-11-14T20:28:44;102156.17;;;2.05;78.65
43394;BME280;62479;62.642;17.954;2022-11-14T20:31:14;102159.46;;;2.10;79.28
43394;BME280;62479;62.642;17.954;2022-11-14T20:33:45;102157.32;;;2.14;79.35
43394;BME280;62479;62.642;17.954;2022-11-14T20:36:17;102150.35;;;1.98;79.57
43394;BME280;62479;62.642;17.954;2022-11-14T20:38:45;102152.72;;;1.87;79.87
43394;BME280;62479;62.642;17.954;2022-11-14T20:41:14;102151.51;;;1.87;79.79
43394;BME280;62479;62.642;17.954;2022-11-14T20:43:43;102150.33;;;1.89;79.78
43394;BME280;62479;62.642;17.954;2022-11-14T20:46:15;102152.19;;;1.79;80.10
43394;BME280;62479;62.642;17.954;2022-11-14T20:48:44;102154.63;;;1.68;80.16
43394;BME280;62479;62.642;17.954;2022-11-14T20:51:14;102158.94;;;1.64;81.13
43394;BME280;62479;62.642;17.954;2022-11-14T20:53:43;102161.21;;;1.64;80.81
43394;BME280;62479;62.642;17.954;2022-11-14T20:56:13;102161.63;;;1.59;81.23
43394;BME280;62479;62.642;17.954;2022-11-14T20:58:44;102162.41;;;1.75;81.21
43394;BME280;62479;62.642;17.954;2022-11-14T21:01:14;102164.01;;;1.84;80.93
43394;BME280;62479;62.642;17.954;2022-11-14T21:03:43;102164.46;;;1.86;80.48
43394;BME280;62479;62.642;17.954;2022-11-14T21:06:12;102169.02;;;1.81;80.96
43394;BME280;62479;62.642;17.954;2022-11-14T21:08:41;102172.25;;;1.73;80.47
43394;BME280;62479;62.642;17.954;2022-11-14T21:11:12;102183.08;;;1.81;80.66
43394;BME280;62479;62.642;17.954;2022-11-14T21:13:42;102186.34;;;1.83;80.56
43394;BME280;62479;62.642;17.954;2022-11-14T21:16:13;102178.41;;;1.79;80.08
43394;BME280;62479;62.642;17.954;2022-11-14T21:18:42;102182.99;;;1.78;79.90
43394;BME280;62479;62.642;17.954;2022-11-14T21:21:13;102185.91;;;1.66;79.98
43394;BME280;62479;62.642;17.954;2022-11-14T21:23:42;102187.09;;;1.75;79.84
43394;BME280;62479;62.642;17.954;2022-11-14T21:26:12;102187.82;;;1.82;79.90
43394;BME280;62479;62.642;17.954;2022-11-14T21:28:43;102195.64;;;1.76;80.12
43394;BME280;62479;62.642;17.954;2022-11-14T21:31:15;102196.19;;;1.90;79.94
43394;BME280;62479;62.642;17.954;2022-11-14T21:33:45;102197.05;;;1.95;80.11